Science Garden, Philippines
Current Conditions -  °F | °C
As of 2:00 PM on Friday 19 Dec 2014 (Local Time) from RPLL Reporting Station
Broken Clouds Broken Clouds  
Wind Chill: 84°   Ceiling: 10000
Heat Index: 88°   Visibility: 6mi
Dew Point: 70°   Wind: 7mph
Humidity: 62%   Direction: NA
Pressure: 29.94"   Gusts: NA
Location:  14.63°N, 121.02°E
Report Text: RPLL 190600Z VRB06KT 9999 SCT023 BKN100 29/21 Q1014 NOSIG RMK A2994
Loading
Personal Weather Stations






























Interactive Weather Map New forecast layout! Learn more

10-Day Weather Forecast

Advertisements
Track Severe Weather on mobile